Time;durP1;ratioP1;P1;durP2;ratioP2;P2;SDS_P1;SDS_P2;PMS_P1;PMS_P2;Temp;Humidity;BMP_temperature;BMP_pressure;BME280_temperature;BME280_humidity;BME280_pressure;Samples;Min_cycle;Max_cycle;Signal;HPM_P1;HPM_P2
2022/08/14 00:00:57;;;;;;;3.70;2.90;;;24.60;50.60;;;;;;5016290;28;20195;-75
2022/08/14 00:03:25;;;;;;;2.97;2.67;;;24.70;50.60;;;;;;5013613;28;20176;-75
2022/08/14 00:05:53;;;;;;;4.45;3.03;;;24.70;50.80;;;;;;5009857;28;20254;-75
2022/08/14 00:08:19;;;;;;;3.55;3.22;;;24.70;50.90;;;;;;5004067;28;20180;-75
2022/08/14 00:10:45;;;;;;;4.32;3.92;;;24.70;50.90;;;;;;5002795;28;20163;-75
2022/08/14 00:13:11;;;;;;;5.00;4.50;;;24.70;50.90;;;;;;4999286;28;20215;-75
2022/08/14 00:15:44;;;;;;;6.72;5.53;;;24.70;51.10;;;;;;5005680;28;20202;-74
2022/08/14 00:18:14;;;;;;;4.70;4.20;;;24.70;51.40;;;;;;5001987;28;20180;-75
2022/08/14 00:20:42;;;;;;;5.25;4.50;;;24.70;51.20;;;;;;5005803;28;20271;-74
2022/08/14 00:23:09;;;;;;;4.80;4.22;;;24.60;51.10;;;;;;5005685;28;20250;-74
2022/08/14 00:25:36;;;;;;;4.07;3.40;;;24.60;51.30;;;;;;4997965;28;20239;-75
2022/08/14 00:28:02;;;;;;;4.20;3.80;;;24.60;52.10;;;;;;4998922;28;20199;-75
2022/08/14 00:30:28;;;;;;;3.53;3.22;;;24.60;51.40;;;;;;4996754;28;20167;-75
2022/08/14 00:32:56;;;;;;;3.75;3.00;;;24.50;51.40;;;;;;4996190;28;20172;-75
2022/08/14 00:35:24;;;;;;;4.13;3.50;;;24.50;51.50;;;;;;5008744;28;20178;-75
2022/08/14 00:37:52;;;;;;;3.80;3.33;;;24.50;51.90;;;;;;5003261;28;20179;-73
2022/08/14 00:40:21;;;;;;;3.45;3.15;;;24.50;51.70;;;;;;5007183;28;20219;-75
2022/08/14 00:42:47;;;;;;;4.35;2.90;;;24.40;51.90;;;;;;5010999;28;20235;-75
2022/08/14 00:45:16;;;;;;;3.60;2.50;;;24.40;52.00;;;;;;5009474;28;20187;-75
2022/08/14 00:47:47;;;;;;;3.20;2.90;;;24.30;52.10;;;;;;5004795;28;20207;-75
2022/08/14 00:50:16;;;;;;;3.30;3.00;;;24.30;52.30;;;;;;5002606;28;20176;-74
2022/08/14 00:52:45;;;;;;;2.88;2.63;;;24.30;52.30;;;;;;5000537;28;20177;-74
2022/08/14 00:55:11;;;;;;;2.72;2.50;;;24.30;52.30;;;;;;5018007;28;20180;-73
2022/08/14 00:57:37;;;;;;;3.17;2.88;;;24.20;52.30;;;;;;5000844;28;20203;-75
2022/08/14 01:00:13;;;;;;;3.17;2.88;;;24.20;52.50;;;;;;5006861;28;20302;-74
2022/08/14 01:02:43;;;;;;;3.30;3.00;;;24.20;52.80;;;;;;5006519;28;20202;-72
2022/08/14 01:05:24;;;;;;;3.83;2.90;;;24.20;52.90;;;;;;5004148;28;20180;-74
2022/08/14 01:07:58;;;;;;;3.78;2.72;;;24.10;53.10;;;;;;5002672;28;20191;-75
2022/08/14 01:10:49;;;;;;;3.10;2.80;;;24.10;53.00;;;;;;4998764;28;20281;-74
2022/08/14 01:13:13;;;;;;;3.22;2.92;;;24.10;53.20;;;;;;5004945;28;20242;-74
2022/08/14 01:15:38;;;;;;;3.20;2.90;;;24.10;53.30;;;;;;5000576;28;20187;-74
2022/08/14 01:21:05;;;;;;;2.88;2.67;;;24.10;53.70;;;;;;4993623;28;20273;-75
2022/08/14 01:23:33;;;;;;;3.25;2.95;;;24.00;53.70;;;;;;5002133;28;20184;-73
2022/08/14 01:25:59;;;;;;;5.22;2.88;;;24.00;53.90;;;;;;5003145;28;20179;-75
2022/08/14 01:28:25;;;;;;;3.75;3.33;;;24.00;54.10;;;;;;5007398;28;20186;-74
2022/08/14 01:30:56;;;;;;;3.42;3.13;;;24.00;54.30;;;;;;5009154;28;20176;-73
2022/08/14 01:33:27;;;;;;;3.30;3.00;;;23.90;54.60;;;;;;5008864;28;20248;-75
2022/08/14 01:35:56;;;;;;;6.00;3.30;;;23.90;54.50;;;;;;5010426;28;20199;-74
2022/08/14 01:38:25;;;;;;;4.20;3.60;;;23.90;54.70;;;;;;4998944;28;20555;-74
2022/08/14 01:40:51;;;;;;;3.47;3.17;;;23.90;54.80;;;;;;5000130;28;20204;-74
2022/08/14 01:43:17;;;;;;;3.58;3.28;;;23.90;54.80;;;;;;5000057;28;20231;-73
2022/08/14 01:45:43;;;;;;;3.80;3.38;;;23.90;55.00;;;;;;5005442;28;20196;-75
2022/08/14 01:48:16;;;;;;;3.63;3.33;;;23.90;55.20;;;;;;5006139;28;20191;-75
2022/08/14 01:50:42;;;;;;;4.15;3.40;;;23.90;55.60;;;;;;5011142;28;20210;-74
2022/08/14 01:53:09;;;;;;;3.65;3.25;;;23.90;55.50;;;;;;5005965;28;20204;-74
2022/08/14 01:55:38;;;;;;;3.90;3.58;;;23.90;55.70;;;;;;5001450;28;20187;-75
2022/08/14 01:58:03;;;;;;;4.40;3.55;;;23.90;56.50;;;;;;4996956;28;20192;-75
2022/08/14 02:00:29;;;;;;;3.78;3.47;;;23.90;55.80;;;;;;5006856;28;20277;-76
2022/08/14 02:02:58;;;;;;;9.60;3.55;;;23.90;55.90;;;;;;5007801;28;20191;-72
2022/08/14 02:05:30;;;;;;;3.67;3.35;;;23.90;56.00;;;;;;5012227;28;20259;-75
2022/08/14 02:07:55;;;;;;;3.88;3.33;;;23.90;56.30;;;;;;5009199;28;20200;-74
2022/08/14 02:10:27;;;;;;;3.70;3.25;;;23.80;56.10;;;;;;5007949;28;20245;-74
2022/08/14 02:12:56;;;;;;;3.65;3.25;;;23.80;56.10;;;;;;4998635;28;20191;-74
2022/08/14 02:15:23;;;;;;;3.38;3.08;;;23.80;56.20;;;;;;5006152;28;20183;-75
2022/08/14 02:17:49;;;;;;;4.53;3.33;;;23.80;56.30;;;;;;5009213;28;20184;-74
2022/08/14 02:20:20;;;;;;;3.60;3.28;;;23.70;56.40;;;;;;5003221;28;20270;-75
2022/08/14 02:22:48;;;;;;;3.53;3.22;;;23.70;56.70;;;;;;5023346;28;20229;-74
2022/08/14 02:25:14;;;;;;;3.40;3.10;;;23.60;56.50;;;;;;5000663;28;20184;-74
2022/08/14 02:27:41;;;;;;;3.33;3.03;;;23.60;56.70;;;;;;5005839;28;20219;-75
2022/08/14 02:30:07;;;;;;;3.95;2.90;;;23.60;56.80;;;;;;5010089;28;20461;-74
2022/08/14 02:32:33;;;;;;;3.30;3.00;;;23.60;56.90;;;;;;5007618;28;20188;-74
2022/08/14 02:35:02;;;;;;;3.58;3.28;;;23.50;57.00;;;;;;5007706;28;20195;-74
2022/08/14 02:37:28;;;;;;;3.83;3.50;;;23.50;57.10;;;;;;5003609;28;20196;-74
2022/08/14 02:39:56;;;;;;;3.72;3.20;;;23.50;57.30;;;;;;5004273;28;20227;-75
2022/08/14 02:42:25;;;;;;;3.53;3.22;;;23.50;57.40;;;;;;4998406;28;20200;-75
2022/08/14 02:44:50;;;;;;;3.25;2.80;;;23.40;57.30;;;;;;5008507;28;20202;-74
2022/08/14 02:47:20;;;;;;;3.30;3.00;;;23.30;56.90;;;;;;5007028;28;20199;-74
2022/08/14 02:49:47;;;;;;;3.13;2.83;;;23.30;57.00;;;;;;5002114;28;20207;-75
2022/08/14 02:52:13;;;;;;;3.22;2.92;;;23.20;57.10;;;;;;4996205;28;20191;-74
2022/08/14 02:54:44;;;;;;;4.30;3.22;;;23.20;57.30;;;;;;4997409;28;20251;-74
2022/08/14 02:57:11;;;;;;;3.42;2.97;;;23.20;57.50;;;;;;5018139;28;20206;-74
2022/08/14 02:59:40;;;;;;;3.67;3.22;;;23.10;57.60;;;;;;5005183;28;20209;-74
2022/08/14 03:02:07;;;;;;;3.72;3.42;;;23.10;57.80;;;;;;5003956;28;20176;-75
2022/08/14 03:04:35;;;;;;;3.58;3.22;;;23.00;58.00;;;;;;5011625;28;20178;-75
2022/08/14 03:07:01;;;;;;;3.40;3.10;;;22.90;58.00;;;;;;4996674;28;20180;-74
2022/08/14 03:09:26;;;;;;;3.53;3.10;;;22.90;58.00;;;;;;5005059;28;20204;-74
2022/08/14 03:11:52;;;;;;;4.32;3.13;;;22.80;58.00;;;;;;5002733;28;20180;-74
2022/08/14 03:14:20;;;;;;;3.45;2.90;;;22.70;58.70;;;;;;4997126;28;20180;-73
2022/08/14 03:16:47;;;;;;;3.45;3.15;;;22.70;58.30;;;;;;5016017;28;20191;-74
2022/08/14 03:19:13;;;;;;;3.30;3.00;;;22.60;58.50;;;;;;5001286;28;20199;-74
2022/08/14 03:21:38;;;;;;;4.10;3.35;;;22.60;58.70;;;;;;4993635;28;20184;-75
2022/08/14 03:24:10;;;;;;;3.70;3.40;;;22.50;58.80;;;;;;4997223;28;20210;-75
2022/08/14 03:26:38;;;;;;;3.88;3.20;;;22.50;59.00;;;;;;4992862;28;20180;-74
2022/08/14 03:29:11;;;;;;;3.20;2.90;;;22.50;59.20;;;;;;5003680;28;20262;-74
2022/08/14 03:31:40;;;;;;;3.20;2.80;;;22.50;59.20;;;;;;5013197;28;20262;-74
2022/08/14 03:34:11;;;;;;;3.38;3.08;;;22.40;59.20;;;;;;4998620;28;20172;-73
2022/08/14 03:36:39;;;;;;;3.40;3.10;;;22.40;59.70;;;;;;5021228;28;20176;-74
2022/08/14 03:39:08;;;;;;;3.30;3.00;;;22.40;59.50;;;;;;5005810;28;20227;-75
2022/08/14 03:41:37;;;;;;;3.58;3.28;;;22.40;59.70;;;;;;5001562;28;20234;-75
2022/08/14 03:44:05;;;;;;;4.72;3.53;;;22.40;60.60;;;;;;5006666;28;20283;-73
2022/08/14 03:46:34;;;;;;;3.58;3.28;;;22.30;60.50;;;;;;5005966;28;20225;-74
2022/08/14 03:49:03;;;;;;;3.33;3.03;;;22.30;60.50;;;;;;5008136;28;20196;-73
2022/08/14 03:51:30;;;;;;;4.60;3.30;;;22.30;60.50;;;;;;5003824;28;20191;-74
2022/08/14 03:53:58;;;;;;;3.45;3.13;;;22.20;60.50;;;;;;5001147;28;20226;-75
2022/08/14 03:56:26;;;;;;;3.67;3.08;;;22.20;60.80;;;;;;5003993;28;20271;-74
2022/08/14 03:59:10;;;;;;;3.60;3.30;;;22.10;61.00;;;;;;5011906;28;20486;-75
2022/08/14 04:01:42;;;;;;;3.83;3.42;;;22.10;61.60;;;;;;5000077;28;20198;-74
2022/08/14 04:04:12;;;;;;;3.47;3.17;;;22.00;61.40;;;;;;5003276;28;20203;-74
2022/08/14 04:06:38;;;;;;;3.92;3.22;;;22.00;61.90;;;;;;5000654;28;20214;-74
2022/08/14 04:09:06;;;;;;;3.60;3.30;;;22.00;61.90;;;;;;5011882;28;20195;-75
2022/08/14 04:11:33;;;;;;;3.20;2.90;;;22.00;62.20;;;;;;5001898;28;20175;-74
2022/08/14 04:14:00;;;;;;;3.63;2.95;;;21.90;62.00;;;;;;4995089;28;20448;-74
2022/08/14 04:16:25;;;;;;;3.40;3.10;;;21.90;62.20;;;;;;5052078;23;20224;-66
2022/08/14 04:18:58;;;;;;;3.83;2.90;;;21.90;62.40;;;;;;4973626;28;20181;-67
2022/08/14 04:21:28;;;;;;;4.05;3.40;;;21.90;63.00;;;;;;4985739;28;20204;-66
2022/08/14 04:24:00;;;;;;;3.70;3.40;;;21.90;63.00;;;;;;5002930;28;20191;-67
2022/08/14 04:26:30;;;;;;;3.88;3.00;;;21.90;63.70;;;;;;4987226;28;20172;-67
2022/08/14 04:28:56;;;;;;;3.40;3.10;;;21.90;63.50;;;;;;4980161;28;20284;-66
2022/08/14 04:31:24;;;;;;;3.72;2.70;;;21.90;63.40;;;;;;4981773;28;20179;-66
2022/08/14 04:33:51;;;;;;;3.58;3.20;;;21.90;63.70;;;;;;4981143;28;20176;-67
2022/08/14 04:36:18;;;;;;;3.55;3.22;;;21.80;63.80;;;;;;4980932;28;20235;-66
2022/08/14 04:44:12;;;;;;;7.05;6.35;;;21.80;64.40;;;;;;4971215;28;20199;-66
2022/08/14 04:46:39;;;;;;;5.68;5.18;;;21.80;64.50;;;;;;4996648;28;20172;-67
2022/08/14 04:49:05;;;;;;;9.32;7.93;;;21.70;64.70;;;;;;4992630;28;20215;-67
2022/08/14 04:51:31;;;;;;;8.32;7.28;;;21.70;65.60;;;;;;4977172;28;20181;-66
2022/08/14 04:54:01;;;;;;;8.43;7.55;;;21.70;65.50;;;;;;4986637;28;20207;-67
2022/08/14 04:56:27;;;;;;;6.35;5.75;;;21.60;65.50;;;;;;4983821;28;20219;-66
2022/08/14 04:59:03;;;;;;;6.30;5.70;;;21.60;65.70;;;;;;4985208;28;20333;-68
2022/08/14 05:01:32;;;;;;;5.50;5.00;;;21.60;66.10;;;;;;4989639;28;20200;-68
2022/08/14 05:04:04;;;;;;;4.65;4.22;;;21.60;66.00;;;;;;4969627;28;20191;-68
2022/08/14 05:06:30;;;;;;;4.20;3.80;;;21.70;66.80;;;;;;4994432;28;20176;-68
2022/08/14 05:08:58;;;;;;;4.82;4.20;;;21.70;66.60;;;;;;4981470;28;20226;-68
2022/08/14 05:11:24;;;;;;;4.22;3.80;;;21.80;67.30;;;;;;4987747;28;20203;-68
2022/08/14 05:13:51;;;;;;;3.85;3.47;;;21.80;67.10;;;;;;4981505;28;20185;-68
2022/08/14 05:16:19;;;;;;;4.70;4.22;;;21.80;67.40;;;;;;4996908;28;20214;-68
2022/08/14 05:18:45;;;;;;;5.10;4.60;;;21.90;67.60;;;;;;4980270;28;20184;-68
2022/08/14 05:21:13;;;;;;;5.88;5.03;;;21.90;67.90;;;;;;4978699;28;20216;-68
2022/08/14 05:23:39;;;;;;;4.40;4.00;;;21.90;68.60;;;;;;4980859;28;20246;-66
2022/08/14 05:26:11;;;;;;;4.63;4.13;;;21.90;68.40;;;;;;5000144;28;20279;-67
2022/08/14 05:28:43;;;;;;;5.03;4.53;;;22.00;68.70;;;;;;4983153;28;20320;-68
2022/08/14 05:31:10;;;;;;;5.95;3.92;;;22.00;69.10;;;;;;4980986;28;20180;-72
2022/08/14 05:33:36;;;;;;;4.30;3.90;;;22.00;69.40;;;;;;4980040;28;20180;-72
2022/08/14 05:36:08;;;;;;;4.90;4.00;;;22.10;69.70;;;;;;4980093;28;20212;-74
2022/08/14 05:38:43;;;;;;;4.55;4.15;;;22.10;70.20;;;;;;5000112;28;20243;-73
2022/08/14 05:41:12;;;;;;;7.22;6.30;;;22.20;71.00;;;;;;4965928;28;20278;-73
2022/08/14 05:43:39;;;;;;;6.55;5.95;;;22.20;70.40;;;;;;4994369;28;20210;-72
2022/08/14 05:46:08;;;;;;;4.97;4.47;;;22.20;70.50;;;;;;4980981;28;20383;-71
2022/08/14 05:48:34;;;;;;;4.70;4.18;;;22.30;70.40;;;;;;4979984;28;20176;-72
2022/08/14 05:51:02;;;;;;;4.47;4.07;;;22.30;70.30;;;;;;4996246;28;20210;-72
2022/08/14 05:53:30;;;;;;;4.57;3.80;;;22.40;70.30;;;;;;4980566;28;20203;-73
2022/08/14 05:55:57;;;;;;;5.10;3.40;;;22.40;70.80;;;;;;4980079;28;20207;-73
2022/08/14 05:58:26;;;;;;;3.58;3.28;;;22.50;70.50;;;;;;4996422;28;20203;-72
2022/08/14 06:00:56;;;;;;;3.45;3.15;;;22.50;70.70;;;;;;4999525;28;20207;-73
2022/08/14 06:03:26;;;;;;;4.97;4.45;;;22.60;70.90;;;;;;4996609;28;20172;-72
2022/08/14 06:05:53;;;;;;;4.30;3.67;;;22.60;71.10;;;;;;4962375;28;20201;-70
2022/08/14 06:08:19;;;;;;;3.95;3.55;;;22.70;71.10;;;;;;4990968;28;20165;-73
2022/08/14 06:10:48;;;;;;;5.38;3.70;;;22.70;70.90;;;;;;4980149;28;20239;-73
2022/08/14 06:13:14;;;;;;;3.95;3.63;;;22.80;71.40;;;;;;4976417;28;20208;-74
2022/08/14 06:15:40;;;;;;;4.13;3.72;;;22.80;71.20;;;;;;4993536;28;20500;-72
2022/08/14 06:18:06;;;;;;;4.00;3.60;;;22.90;71.30;;;;;;4999322;28;20214;-73
2022/08/14 06:20:32;;;;;;;5.00;3.70;;;22.90;71.40;;;;;;4996065;28;20223;-73
2022/08/14 06:22:58;;;;;;;3.90;3.60;;;23.00;71.70;;;;;;4976034;28;20173;-73
2022/08/14 06:25:25;;;;;;;4.40;3.53;;;23.00;72.30;;;;;;4978853;28;20184;-71
2022/08/14 06:27:50;;;;;;;4.47;3.85;;;23.10;71.80;;;;;;4985691;28;20191;-70
2022/08/14 06:30:20;;;;;;;4.03;3.63;;;23.10;71.90;;;;;;5003072;28;20180;-73
2022/08/14 06:32:46;;;;;;;4.18;3.78;;;23.20;72.40;;;;;;4984120;28;20259;-73
2022/08/14 06:35:19;;;;;;;4.20;3.90;;;23.20;72.20;;;;;;4996006;28;20176;-72
2022/08/14 06:37:51;;;;;;;4.18;3.78;;;23.30;72.40;;;;;;4981619;28;20180;-74
2022/08/14 06:40:22;;;;;;;3.95;3.53;;;23.30;72.30;;;;;;4996375;28;20235;-73
2022/08/14 06:42:48;;;;;;;4.53;4.13;;;23.40;72.70;;;;;;4998438;28;20164;-71
2022/08/14 06:45:17;;;;;;;4.30;3.90;;;23.40;72.70;;;;;;4984269;28;20176;-73
2022/08/14 06:47:44;;;;;;;4.28;3.88;;;23.50;72.80;;;;;;4979254;28;20200;-72
2022/08/14 06:50:15;;;;;;;4.00;3.60;;;23.50;73.10;;;;;;4981001;28;20183;-73
2022/08/14 06:52:44;;;;;;;4.20;3.80;;;23.60;73.40;;;;;;5004293;28;20203;-73
2022/08/14 06:55:12;;;;;;;4.28;3.88;;;23.60;73.40;;;;;;4978953;28;20203;-73
2022/08/14 06:57:41;;;;;;;3.90;3.60;;;23.60;73.20;;;;;;4978791;28;20243;-72
2022/08/14 07:00:12;;;;;;;4.85;4.00;;;23.70;73.40;;;;;;4995477;28;20232;-73
2022/08/14 07:08:25;;;;;;;4.15;3.80;;;23.90;73.80;;;;;;4978236;28;20255;-74
2022/08/14 07:10:55;;;;;;;4.72;3.85;;;23.90;74.00;;;;;;4982605;28;20238;-73
2022/08/14 07:13:23;;;;;;;5.07;4.50;;;24.00;74.20;;;;;;4978055;28;20227;-73
2022/08/14 07:15:53;;;;;;;4.43;4.03;;;24.10;74.10;;;;;;4991595;28;20275;-73
2022/08/14 07:18:22;;;;;;;4.95;4.53;;;24.10;74.00;;;;;;4985192;28;20191;-73
2022/08/14 07:20:52;;;;;;;4.40;4.00;;;24.20;74.40;;;;;;4999557;28;20196;-72
2022/08/14 07:23:26;;;;;;;6.05;3.63;;;24.30;74.40;;;;;;4983073;28;20196;-71
2022/08/14 07:25:56;;;;;;;6.40;4.68;;;24.30;74.50;;;;;;4988908;28;20172;-70
2022/08/14 07:28:30;;;;;;;5.85;4.18;;;24.40;74.50;;;;;;4971468;28;20176;-74
2022/08/14 07:30:59;;;;;;;5.65;4.18;;;24.50;74.10;;;;;;4979782;28;20200;-73
2022/08/14 07:33:29;;;;;;;5.20;4.72;;;24.50;74.40;;;;;;4981165;28;20179;-73
2022/08/14 07:36:01;;;;;;;4.95;4.45;;;24.60;75.10;;;;;;4978782;28;20204;-73
2022/08/14 07:38:29;;;;;;;4.68;4.28;;;24.60;74.80;;;;;;4994653;28;20385;-73
2022/08/14 07:40:55;;;;;;;4.15;3.75;;;24.70;74.80;;;;;;4981686;28;20199;-73
2022/08/14 07:43:21;;;;;;;4.07;3.67;;;24.80;74.80;;;;;;4976119;28;20169;-73
2022/08/14 07:45:48;;;;;;;4.88;4.43;;;24.90;75.00;;;;;;4972273;28;20199;-73
2022/08/14 07:48:16;;;;;;;5.47;4.10;;;24.90;74.90;;;;;;4994658;28;20180;-74
2022/08/14 07:50:42;;;;;;;4.47;4.07;;;25.00;75.00;;;;;;4987813;28;20242;-72
2022/08/14 07:53:08;;;;;;;4.55;4.15;;;25.10;74.80;;;;;;4994438;28;20227;-73
2022/08/14 07:55:34;;;;;;;4.50;3.88;;;25.20;74.80;;;;;;4995816;28;20196;-73
2022/08/14 07:58:02;;;;;;;5.10;4.60;;;25.20;74.80;;;;;;4992272;28;20176;-74
2022/08/14 08:00:29;;;;;;;5.03;4.40;;;25.30;75.30;;;;;;4978932;28;20203;-73
2022/08/14 08:02:55;;;;;;;4.47;4.07;;;25.40;75.80;;;;;;4981815;28;20222;-75
2022/08/14 08:05:25;;;;;;;4.70;4.30;;;25.50;75.00;;;;;;4980836;28;20172;-73
2022/08/14 08:07:52;;;;;;;4.75;4.32;;;25.60;74.70;;;;;;4980253;28;20176;-73
2022/08/14 08:10:30;;;;;;;4.57;4.18;;;25.70;74.40;;;;;;4994400;28;20206;-74
2022/08/14 08:13:12;;;;;;;5.00;4.50;;;25.70;75.00;;;;;;4994322;28;20179;-75
2022/08/14 08:15:41;;;;;;;4.63;4.22;;;25.80;74.90;;;;;;4984794;28;20215;-67
2022/08/14 08:18:08;;;;;;;4.68;4.28;;;25.90;74.50;;;;;;5001871;28;20216;-73
2022/08/14 08:20:37;;;;;;;5.20;4.70;;;26.00;74.50;;;;;;4986723;28;20297;-74
2022/08/14 08:23:04;;;;;;;4.68;4.18;;;26.10;74.50;;;;;;4998177;28;20163;-73
2022/08/14 08:25:34;;;;;;;5.03;4.63;;;26.20;74.50;;;;;;4997017;28;20207;-74
2022/08/14 08:28:07;;;;;;;4.65;4.25;;;26.30;75.10;;;;;;4978235;28;20179;-74
2022/08/14 08:30:37;;;;;;;4.72;4.22;;;26.40;74.20;;;;;;4983354;28;20188;-74
2022/08/14 08:33:04;;;;;;;4.85;4.35;;;26.50;74.00;;;;;;5001006;28;20191;-71
2022/08/14 08:35:37;;;;;;;7.15;4.53;;;26.60;73.60;;;;;;4981291;28;20218;-73
2022/08/14 08:38:13;;;;;;;5.00;4.60;;;26.70;73.60;;;;;;4989345;28;20242;-70
2022/08/14 08:40:44;;;;;;;4.43;4.07;;;26.80;73.50;;;;;;4989542;28;20199;-69
2022/08/14 08:43:26;;;;;;;5.03;4.47;;;26.90;73.30;;;;;;4988057;28;20203;-74
2022/08/14 08:46:10;;;;;;;4.40;4.00;;;27.00;73.10;;;;;;4976982;28;20176;-74
2022/08/14 08:48:44;;;;;;;4.82;4.43;;;27.10;72.90;;;;;;5002276;28;20186;-74
2022/08/14 08:51:29;;;;;;;4.85;4.45;;;27.10;72.60;;;;;;4981950;28;20195;-74
2022/08/14 08:54:14;;;;;;;4.70;4.30;;;27.20;72.30;;;;;;4983806;28;20168;-73
2022/08/14 08:56:48;;;;;;;4.45;3.75;;;27.30;71.60;;;;;;4989171;28;20208;-74
2022/08/14 08:59:21;;;;;;;4.65;4.25;;;27.30;71.40;;;;;;4983284;28;20168;-74
2022/08/14 09:01:58;;;;;;;4.38;4.03;;;27.50;71.20;;;;;;4982313;28;20278;-74
2022/08/14 09:04:25;;;;;;;4.40;4.00;;;27.50;70.90;;;;;;4990109;28;20211;-71
2022/08/14 09:06:59;;;;;;;3.88;3.40;;;27.60;71.80;;;;;;4993103;28;20183;-72
2022/08/14 09:09:31;;;;;;;4.07;3.75;;;27.60;70.80;;;;;;4979593;28;20185;-74
2022/08/14 09:12:00;;;;;;;4.43;4.03;;;27.70;70.80;;;;;;4990942;28;20195;-71
2022/08/14 09:14:30;;;;;;;4.15;3.75;;;27.80;70.40;;;;;;5012610;28;20207;-74
2022/08/14 09:16:58;;;;;;;4.05;3.65;;;27.90;70.50;;;;;;5002787;28;20211;-73
2022/08/14 09:19:26;;;;;;;4.30;3.90;;;27.90;70.00;;;;;;4986485;28;20195;-71
2022/08/14 09:21:53;;;;;;;4.35;3.95;;;28.00;69.80;;;;;;5003937;28;20203;-73
2022/08/14 09:24:20;;;;;;;4.60;4.20;;;28.10;69.70;;;;;;5010369;28;20168;-73
2022/08/14 09:26:48;;;;;;;4.63;4.22;;;28.20;69.50;;;;;;4987706;28;20240;-74
2022/08/14 09:29:13;;;;;;;4.60;4.20;;;28.30;69.30;;;;;;4983721;28;20240;-73
2022/08/14 09:31:46;;;;;;;4.30;3.90;;;28.40;68.80;;;;;;4989609;28;20204;-72
2022/08/14 09:34:46;;;;;;;5.15;4.47;;;28.50;68.40;;;;;;4985938;28;20195;-74
2022/08/14 09:37:27;;;;;;;4.30;3.90;;;28.60;68.00;;;;;;4987410;28;20211;-74
2022/08/14 09:39:56;;;;;;;4.20;3.80;;;28.70;68.40;;;;;;4979008;28;20218;-72
2022/08/14 09:42:27;;;;;;;4.10;3.70;;;28.80;68.20;;;;;;4991827;28;20176;-70
2022/08/14 09:45:16;;;;;;;3.53;3.20;;;29.00;68.10;;;;;;5005768;28;20206;-73
2022/08/14 09:47:55;;;;;;;4.10;3.75;;;29.10;67.20;;;;;;4986649;28;20224;-72
2022/08/14 09:50:32;;;;;;;3.90;3.60;;;29.20;67.40;;;;;;4993718;28;20176;-72
2022/08/14 09:53:06;;;;;;;3.72;3.42;;;29.30;67.10;;;;;;5006081;28;20179;-74
2022/08/14 09:55:34;;;;;;;3.88;3.13;;;29.40;66.20;;;;;;4984083;28;20176;-74
2022/08/14 09:58:19;;;;;;;3.70;3.40;;;29.50;66.50;;;;;;4990642;28;20266;-72
2022/08/14 10:00:59;;;;;;;3.67;3.38;;;29.70;66.00;;;;;;4986393;28;20215;-73
2022/08/14 10:03:33;;;;;;;3.65;3.35;;;29.80;66.00;;;;;;4981692;28;20294;-74
2022/08/14 10:06:19;;;;;;;3.75;3.40;;;30.00;65.10;;;;;;4967165;28;20229;-72
2022/08/14 10:08:48;;;;;;;3.92;3.50;;;30.10;64.90;;;;;;4972617;28;20176;-70
2022/08/14 10:11:19;;;;;;;3.92;3.63;;;30.20;64.80;;;;;;4994639;28;20211;-73
2022/08/14 10:13:53;;;;;;;3.67;3.38;;;30.40;64.40;;;;;;5003142;28;20200;-74
2022/08/14 10:16:31;;;;;;;3.40;3.10;;;30.50;63.90;;;;;;4988913;28;20204;-73
2022/08/14 10:19:07;;;;;;;3.92;3.63;;;30.70;63.80;;;;;;4978626;28;20231;-74
2022/08/14 10:21:34;;;;;;;3.40;3.10;;;31.00;62.20;;;;;;4980769;28;20222;-72
2022/08/14 10:23:59;;;;;;;3.60;3.30;;;31.40;62.40;;;;;;5001083;28;20175;-74
2022/08/14 10:26:25;;;;;;;3.70;3.30;;;31.90;61.40;;;;;;4993469;28;20183;-74
2022/08/14 10:28:52;;;;;;;3.53;2.92;;;32.40;60.70;;;;;;4987727;28;20414;-74
2022/08/14 10:31:22;;;;;;;3.33;3.03;;;32.90;59.90;;;;;;4976811;28;20261;-75
2022/08/14 10:34:14;;;;;;;3.35;3.10;;;33.30;59.10;;;;;;4988689;28;20434;-74
2022/08/14 10:36:43;;;;;;;3.00;2.80;;;33.80;57.10;;;;;;4999345;28;20295;-77
2022/08/14 10:39:25;;;;;;;2.90;2.60;;;34.20;57.20;;;;;;4997361;28;20217;-75
2022/08/14 10:42:07;;;;;;;3.10;2.80;;;34.40;55.30;;;;;;4984919;28;20195;-74
2022/08/14 10:44:44;;;;;;;3.10;2.90;;;34.50;54.70;;;;;;4990364;28;20235;-73
2022/08/14 10:47:14;;;;;;;3.45;3.15;;;34.60;54.10;;;;;;4999090;28;20172;-74
2022/08/14 10:49:48;;;;;;;3.10;2.88;;;34.60;54.20;;;;;;4998924;28;20223;-72
2022/08/14 10:52:20;;;;;;;2.80;2.58;;;34.70;54.10;;;;;;4985599;28;20271;-73
2022/08/14 10:54:50;;;;;;;3.63;3.10;;;34.90;53.50;;;;;;4979232;28;20176;-73
2022/08/14 10:57:23;;;;;;;2.88;2.67;;;35.00;53.40;;;;;;4997981;28;20226;-69
2022/08/14 11:00:01;;;;;;;2.90;2.70;;;35.20;53.40;;;;;;5000332;28;20208;-73
2022/08/14 11:02:36;;;;;;;3.33;2.72;;;35.30;52.50;;;;;;5002267;28;20167;-75
2022/08/14 11:05:12;;;;;;;2.72;2.42;;;35.40;51.80;;;;;;4990815;28;20234;-74
2022/08/14 11:07:40;;;;;;;2.80;2.55;;;35.50;52.10;;;;;;4983735;28;20193;-74
2022/08/14 11:10:15;;;;;;;2.53;2.33;;;35.50;52.40;;;;;;5010163;28;20203;-73
2022/08/14 11:12:49;;;;;;;3.63;2.80;;;35.40;51.60;;;;;;4995652;28;20174;-69
2022/08/14 11:15:21;;;;;;;2.90;2.60;;;35.10;50.90;;;;;;4996581;28;20195;-70
2022/08/14 11:17:49;;;;;;;2.88;2.67;;;34.90;51.40;;;;;;4988909;28;20203;-72
2022/08/14 11:20:22;;;;;;;2.90;2.70;;;34.70;51.40;;;;;;4987016;28;20187;-75
2022/08/14 11:22:53;;;;;;;2.50;2.30;;;34.70;51.50;;;;;;4986437;28;20195;-71
2022/08/14 11:25:28;;;;;;;2.65;2.45;;;34.90;51.80;;;;;;4984591;28;20286;-71
2022/08/14 11:27:56;;;;;;;2.80;2.60;;;35.10;51.70;;;;;;4988397;28;20249;-72
2022/08/14 11:30:26;;;;;;;2.90;2.60;;;35.30;51.60;;;;;;4997390;28;20183;-72
2022/08/14 11:32:55;;;;;;;3.70;2.42;;;35.50;51.10;;;;;;4999287;28;20179;-73
2022/08/14 11:35:26;;;;;;;2.72;2.50;;;35.60;51.10;;;;;;4983403;28;20211;-72
2022/08/14 11:37:58;;;;;;;4.53;2.40;;;35.70;50.90;;;;;;4983088;28;20175;-73
2022/08/14 11:40:33;;;;;;;2.60;2.40;;;35.80;49.90;;;;;;4982390;28;20210;-75
2022/08/14 11:43:02;;;;;;;2.33;2.13;;;36.00;49.90;;;;;;4997259;28;20179;-72
2022/08/14 11:45:31;;;;;;;2.58;2.38;;;36.10;50.30;;;;;;4982134;28;20180;-73
2022/08/14 11:47:59;;;;;;;2.53;2.10;;;36.20;50.00;;;;;;5001360;28;20215;-76
2022/08/14 11:50:29;;;;;;;2.47;2.28;;;36.30;49.90;;;;;;4987209;28;20194;-74
2022/08/14 11:52:56;;;;;;;2.50;2.30;;;36.40;49.60;;;;;;4998924;28;20242;-75
2022/08/14 11:55:23;;;;;;;2.20;2.00;;;36.50;49.50;;;;;;5000271;28;20191;-74
2022/08/14 11:58:00;;;;;;;2.30;2.10;;;36.50;48.80;;;;;;4998300;28;20246;-75
2022/08/14 12:00:26;;;;;;;2.20;2.00;;;36.60;47.90;;;;;;5010864;28;20206;-73
2022/08/14 12:02:56;;;;;;;2.35;2.15;;;36.60;48.50;;;;;;4989707;28;20187;-71
2022/08/14 12:05:37;;;;;;;2.20;2.00;;;36.70;47.80;;;;;;4996838;28;20187;-75
2022/08/14 12:08:06;;;;;;;2.45;2.10;;;36.70;47.40;;;;;;4983610;28;20183;-71
2022/08/14 12:10:36;;;;;;;2.22;2.03;;;36.70;47.80;;;;;;4985010;28;20183;-77
2022/08/14 12:13:22;;;;;;;3.15;2.20;;;36.70;47.50;;;;;;4997131;28;20367;-73
2022/08/14 12:16:00;;;;;;;2.15;1.90;;;36.80;46.80;;;;;;4986327;28;20191;-74
2022/08/14 12:18:31;;;;;;;2.30;2.10;;;36.80;47.00;;;;;;4998484;28;20199;-70
2022/08/14 12:20:57;;;;;;;2.20;2.00;;;36.90;47.00;;;;;;4984145;28;20201;-70
2022/08/14 12:23:27;;;;;;;2.38;2.17;;;36.90;47.10;;;;;;4990795;28;20203;-75
2022/08/14 12:26:03;;;;;;;1.85;1.75;;;37.00;46.80;;;;;;4989537;28;20199;-73
2022/08/14 12:28:31;;;;;;;2.40;2.20;;;37.10;46.00;;;;;;4978926;28;20191;-75
2022/08/14 12:30:58;;;;;;;2.20;1.92;;;37.10;45.90;;;;;;4987834;28;20191;-76
2022/08/14 12:33:31;;;;;;;1.80;1.70;;;37.10;45.90;;;;;;5008596;28;20171;-81
2022/08/14 12:36:01;;;;;;;2.28;2.08;;;37.10;46.00;;;;;;4993963;28;20172;-78
2022/08/14 12:38:40;;;;;;;2.30;2.10;;;37.20;45.70;;;;;;4986295;28;20207;-73
2022/08/14 12:41:16;;;;;;;2.42;1.85;;;37.30;44.40;;;;;;4981685;28;20218;-78
2022/08/14 12:44:00;;;;;;;1.65;1.55;;;37.40;45.00;;;;;;4998599;28;20182;-70
2022/08/14 12:46:39;;;;;;;1.92;1.83;;;37.50;44.80;;;;;;5009218;28;20190;-76
2022/08/14 12:49:21;;;;;;;2.30;2.10;;;37.60;44.20;;;;;;4994988;28;20239;-73
2022/08/14 12:52:01;;;;;;;2.05;1.90;;;37.70;43.80;;;;;;4991628;28;20250;-72
2022/08/14 12:54:28;;;;;;;2.05;1.95;;;37.80;43.30;;;;;;4993697;28;20164;-73
2022/08/14 12:57:12;;;;;;;2.38;2.17;;;37.80;44.00;;;;;;4993915;28;20170;-74
2022/08/14 12:59:41;;;;;;;2.00;1.80;;;37.90;42.70;;;;;;4992081;28;20250;-77
2022/08/14 13:02:22;;;;;;;1.75;1.65;;;38.00;43.40;;;;;;5008542;28;20191;-74
2022/08/14 13:04:49;;;;;;;6.05;1.92;;;38.10;42.80;;;;;;5014031;28;20191;-73
2022/08/14 13:07:19;;;;;;;1.73;1.63;;;38.20;43.60;;;;;;5001067;28;20204;-71
2022/08/14 13:09:54;;;;;;;2.03;1.88;;;38.30;43.40;;;;;;5010999;28;20179;-75
2022/08/14 13:12:28;;;;;;;1.60;1.50;;;38.40;42.70;;;;;;5008400;28;20213;-73
2022/08/14 13:15:01;;;;;;;1.90;1.70;;;38.50;42.70;;;;;;4990485;28;20165;-77
2022/08/14 13:17:37;;;;;;;1.95;1.85;;;38.60;42.30;;;;;;5007971;28;20200;-71